createdAt,value
2017-05-04T00:00:57.002Z,1009.78
2017-05-04T00:01:57.610Z,1009.82
2017-05-04T00:02:58.252Z,1009.82
2017-05-04T00:03:58.849Z,1009.79
2017-05-04T00:04:59.459Z,1009.80
2017-05-04T00:06:00.116Z,1009.76
2017-05-04T00:07:00.722Z,1009.77
2017-05-04T00:08:01.328Z,1009.69
2017-05-04T00:09:01.937Z,1009.73
2017-05-04T00:10:02.543Z,1009.74
2017-05-04T00:11:03.186Z,1009.70
2017-05-04T00:12:03.799Z,1009.71
2017-05-04T00:13:04.404Z,1009.62
2017-05-04T00:14:05.012Z,1009.63
2017-05-04T00:15:05.613Z,1009.57
2017-05-04T00:16:06.274Z,1009.53
2017-05-04T00:17:06.957Z,1009.48
2017-05-04T00:18:08.550Z,1009.50
2017-05-04T00:19:09.142Z,1009.53
2017-05-04T00:20:09.749Z,1009.48
2017-05-04T00:21:10.407Z,1009.52
2017-05-04T00:22:11.005Z,1009.55
2017-05-04T00:23:11.608Z,1009.49
2017-05-04T00:24:12.235Z,1009.44
2017-05-04T00:25:12.810Z,1009.49
2017-05-04T00:26:13.417Z,1009.47
2017-05-04T00:27:14.025Z,1009.50
2017-05-04T00:28:14.639Z,1009.49
2017-05-04T00:29:15.246Z,1009.48
2017-05-04T00:30:15.847Z,1009.45
2017-05-04T00:31:16.448Z,1009.44
2017-05-04T00:32:17.055Z,1009.46
2017-05-04T00:33:17.673Z,1009.43
2017-05-04T00:34:18.278Z,1009.41
2017-05-04T00:35:18.879Z,1009.40
2017-05-04T00:36:19.524Z,1009.41
2017-05-04T00:37:20.163Z,1009.41
2017-05-04T00:38:20.820Z,1009.41
2017-05-04T00:39:21.460Z,1009.40
2017-05-04T00:40:22.068Z,1009.36
2017-05-04T00:41:22.741Z,1009.36
2017-05-04T00:42:23.359Z,1009.32
2017-05-04T00:43:23.994Z,1009.33
2017-05-04T00:44:24.568Z,1009.28
2017-05-04T00:45:25.178Z,1009.30
2017-05-04T00:46:25.875Z,1009.33
2017-05-04T00:47:26.495Z,1009.29
2017-05-04T00:48:27.099Z,1009.32
2017-05-04T00:49:27.710Z,1009.29
2017-05-04T00:50:28.318Z,1009.30
2017-05-04T00:51:28.917Z,1009.26
2017-05-04T00:52:29.525Z,1009.28
2017-05-04T00:53:30.130Z,1009.27
2017-05-04T00:54:30.725Z,1009.26
2017-05-04T00:55:31.336Z,1009.25
2017-05-04T00:56:31.943Z,1009.23
2017-05-04T00:57:32.547Z,1009.26
2017-05-04T00:58:33.154Z,1009.26
2017-05-04T00:59:33.751Z,1009.24
2017-05-04T01:00:34.347Z,1009.30
2017-05-04T01:01:34.975Z,1009.27
2017-05-04T01:02:35.620Z,1009.26
2017-05-04T01:03:36.257Z,1009.27
2017-05-04T01:04:36.845Z,1009.25
2017-05-04T01:05:37.458Z,1009.26
2017-05-04T01:06:38.070Z,1009.23
2017-05-04T01:07:38.667Z,1009.29
2017-05-04T01:08:39.275Z,1009.24
2017-05-04T01:09:39.882Z,1009.23
2017-05-04T01:10:40.480Z,1009.23
2017-05-04T01:11:41.079Z,1009.21
2017-05-04T01:12:41.689Z,1009.20
2017-05-04T01:13:42.335Z,1009.23
2017-05-04T01:14:42.953Z,1009.21
2017-05-04T01:15:43.550Z,1009.22
2017-05-04T01:16:44.167Z,1009.20
2017-05-04T01:17:44.771Z,1009.18
2017-05-04T01:18:45.379Z,1009.15
2017-05-04T01:19:45.983Z,1009.19
2017-05-04T01:20:46.589Z,1009.21
2017-05-04T01:21:47.252Z,1009.21
2017-05-04T01:22:47.854Z,1009.21
2017-05-04T01:23:48.448Z,1009.20
2017-05-04T01:24:49.062Z,1009.23
2017-05-04T01:25:49.660Z,1009.22
2017-05-04T01:26:50.275Z,1009.21
2017-05-04T01:27:50.879Z,1009.17
2017-05-04T01:28:51.481Z,1009.17
2017-05-04T01:29:52.074Z,1009.14
2017-05-04T01:30:52.669Z,1009.13
2017-05-04T01:31:53.310Z,1009.14
2017-05-04T01:32:53.907Z,1009.11
2017-05-04T01:33:54.518Z,1009.10
2017-05-04T01:34:55.111Z,1009.07
2017-05-04T01:35:55.723Z,1009.04
2017-05-04T01:36:56.332Z,1009.07
2017-05-04T01:37:56.937Z,1009.03
2017-05-04T01:38:57.531Z,1009.04
2017-05-04T01:39:58.142Z,1008.99
2017-05-04T01:40:58.742Z,1009.01
2017-05-04T01:41:59.408Z,1008.95
2017-05-04T01:43:00.020Z,1008.95
2017-05-04T01:44:00.613Z,1008.97
2017-05-04T01:45:01.219Z,1008.96
2017-05-04T01:46:01.816Z,1008.91
2017-05-04T01:47:02.419Z,1008.90
2017-05-04T01:48:03.023Z,1008.91
2017-05-04T01:49:03.618Z,1008.92
2017-05-04T01:50:04.230Z,1008.88
2017-05-04T01:51:04.839Z,1008.85
2017-05-04T01:52:05.502Z,1008.86
2017-05-04T01:53:06.098Z,1008.85
2017-05-04T01:54:06.692Z,1008.82
2017-05-04T01:55:07.287Z,1008.78
2017-05-04T01:56:07.895Z,1008.77
2017-05-04T01:57:08.559Z,1008.77
2017-05-04T01:58:09.172Z,1008.74
2017-05-04T01:59:09.768Z,1008.73
2017-05-04T02:00:10.370Z,1008.76
2017-05-04T02:01:10.980Z,1008.74
2017-05-04T02:02:11.586Z,1008.71
2017-05-04T02:03:12.198Z,1008.70
2017-05-04T02:04:12.813Z,1008.64
2017-05-04T02:05:13.421Z,1008.62
2017-05-04T02:06:14.029Z,1008.61
2017-05-04T02:07:14.688Z,1008.60
2017-05-04T02:08:15.302Z,1008.54
2017-05-04T02:09:15.912Z,1008.56
2017-05-04T02:10:16.504Z,1008.56
2017-05-04T02:11:17.133Z,1008.56
2017-05-04T02:12:17.718Z,1008.56
2017-05-04T02:13:18.310Z,1008.53
2017-05-04T02:14:18.905Z,1008.52
2017-05-04T02:15:19.503Z,1008.54
2017-05-04T02:16:20.112Z,1008.52
2017-05-04T02:17:20.762Z,1008.56
2017-05-04T02:18:21.371Z,1008.53
2017-05-04T02:19:21.982Z,1008.54
2017-05-04T02:20:22.589Z,1008.52
2017-05-04T02:21:23.184Z,1008.53
2017-05-04T02:22:23.792Z,1008.49
2017-05-04T02:23:24.387Z,1008.51
2017-05-04T02:24:25.001Z,1008.48
2017-05-04T02:25:25.606Z,1008.50
2017-05-04T02:26:26.217Z,1008.45
2017-05-04T02:27:26.826Z,1008.49
2017-05-04T02:28:27.440Z,1008.47
2017-05-04T02:29:28.037Z,1008.47
2017-05-04T02:30:28.646Z,1008.47
2017-05-04T02:31:29.251Z,1008.45
2017-05-04T02:32:29.908Z,1008.44
2017-05-04T02:33:30.508Z,1008.44
2017-05-04T02:34:31.117Z,1008.45
2017-05-04T02:35:31.727Z,1008.44
2017-05-04T02:36:32.322Z,1008.42
2017-05-04T02:37:32.982Z,1008.40
2017-05-04T02:38:33.593Z,1008.44
2017-05-04T02:39:34.204Z,1008.38
2017-05-04T02:40:34.798Z,1008.38
2017-05-04T02:41:35.409Z,1008.40
2017-05-04T02:42:36.011Z,1008.38
2017-05-04T02:43:36.607Z,1008.41
2017-05-04T02:44:37.218Z,1008.40
2017-05-04T02:45:37.828Z,1008.38
2017-05-04T02:46:38.437Z,1008.38
2017-05-04T02:47:39.071Z,1008.35
2017-05-04T02:48:39.646Z,1008.37
2017-05-04T02:49:40.252Z,1008.31
2017-05-04T02:50:40.848Z,1008.34
2017-05-04T02:51:41.458Z,1008.37
2017-05-04T02:52:42.119Z,1008.36
2017-05-04T02:53:42.734Z,1008.37
2017-05-04T02:54:43.341Z,1008.34
2017-05-04T02:55:43.950Z,1008.38
2017-05-04T02:56:44.565Z,1008.36
2017-05-04T02:57:45.219Z,1008.38
2017-05-04T02:58:45.823Z,1008.37
2017-05-04T02:59:46.433Z,1008.34
2017-05-04T03:00:47.039Z,1008.37
2017-05-04T03:01:47.659Z,1008.36
2017-05-04T03:02:48.319Z,1008.36
2017-05-04T03:03:48.930Z,1008.36
2017-05-04T03:04:49.533Z,1008.38
2017-05-04T03:05:50.135Z,1008.40
2017-05-04T03:06:50.730Z,1008.40
2017-05-04T03:07:51.325Z,1008.38
2017-05-04T03:08:51.931Z,1008.38
2017-05-04T03:09:52.541Z,1008.39
2017-05-04T03:10:53.152Z,1008.33
2017-05-04T03:11:53.765Z,1008.37
2017-05-04T03:12:54.423Z,1008.33
2017-05-04T03:13:55.032Z,1008.34
2017-05-04T03:14:55.639Z,1008.30
2017-05-04T03:15:56.246Z,1008.33
2017-05-04T03:16:56.859Z,1008.31
2017-05-04T03:17:57.460Z,1008.30
2017-05-04T03:18:58.068Z,1008.32
2017-05-04T03:19:58.674Z,1008.31
2017-05-04T03:20:59.286Z,1008.31
2017-05-04T03:21:59.899Z,1008.26
2017-05-04T03:23:00.561Z,1008.25
2017-05-04T03:24:01.154Z,1008.28
2017-05-04T03:25:01.762Z,1008.29
2017-05-04T03:26:02.369Z,1008.26
2017-05-04T03:27:02.975Z,1008.27
2017-05-04T03:28:03.585Z,1008.26
2017-05-04T03:29:04.194Z,1008.24
2017-05-04T03:30:04.788Z,1008.22
2017-05-04T03:31:05.395Z,1008.24
2017-05-04T03:32:05.997Z,1008.22
2017-05-04T03:33:06.591Z,1008.21
2017-05-04T03:34:07.203Z,1008.16
2017-05-04T03:35:07.814Z,1008.16
2017-05-04T03:36:08.417Z,1008.17
2017-05-04T03:37:09.013Z,1008.21
2017-05-04T03:38:09.664Z,1008.17
2017-05-04T03:39:10.277Z,1008.18
2017-05-04T03:40:10.886Z,1008.20
2017-05-04T03:41:11.488Z,1008.16
2017-05-04T03:42:12.109Z,1008.14
2017-05-04T03:43:12.713Z,1008.15
2017-05-04T03:44:13.324Z,1008.14
2017-05-04T03:45:13.938Z,1008.17
2017-05-04T03:46:14.548Z,1008.18
2017-05-04T03:47:15.160Z,1008.19
2017-05-04T03:48:15.819Z,1008.20
2017-05-04T03:49:16.428Z,1008.23
2017-05-04T03:50:17.038Z,1008.21
2017-05-04T03:51:17.645Z,1008.21
2017-05-04T03:52:18.245Z,1008.21
2017-05-04T03:53:18.894Z,1008.20
2017-05-04T03:54:19.495Z,1008.21
2017-05-04T03:55:20.110Z,1008.24
2017-05-04T03:56:20.703Z,1008.24
2017-05-04T03:57:21.312Z,1008.20
2017-05-04T03:58:21.973Z,1008.23
2017-05-04T03:59:22.579Z,1008.20
2017-05-04T04:00:23.174Z,1008.25
2017-05-04T04:01:23.782Z,1008.26
2017-05-04T04:02:24.395Z,1008.21
2017-05-04T04:03:25.005Z,1008.18
2017-05-04T04:04:25.618Z,1008.19
2017-05-04T04:05:26.227Z,1008.23
2017-05-04T04:06:26.841Z,1008.24
2017-05-04T04:07:27.438Z,1008.24
2017-05-04T04:08:28.050Z,1008.24
2017-05-04T04:09:28.653Z,1008.25
2017-05-04T04:10:29.255Z,1008.20
2017-05-04T04:11:29.857Z,1008.21
2017-05-04T04:12:30.474Z,1008.19
2017-05-04T04:13:31.070Z,1008.20
2017-05-04T04:14:31.680Z,1008.17
2017-05-04T04:15:32.280Z,1008.14
2017-05-04T04:16:32.900Z,1008.18
2017-05-04T04:17:33.492Z,1008.20
2017-05-04T04:18:34.144Z,1008.17
2017-05-04T04:19:34.741Z,1008.14
2017-05-04T04:20:35.345Z,1008.14
2017-05-04T04:21:35.958Z,1008.12
2017-05-04T04:22:36.562Z,1008.16
2017-05-04T04:23:37.222Z,1008.15
2017-05-04T04:24:37.881Z,1008.16
2017-05-04T04:25:38.511Z,1008.15
2017-05-04T04:26:39.118Z,1008.17
2017-05-04T04:27:39.730Z,1008.18
2017-05-04T04:28:40.384Z,1008.20
2017-05-04T04:29:40.997Z,1008.18
2017-05-04T04:30:41.627Z,1008.12
2017-05-04T04:31:42.220Z,1008.12
2017-05-04T04:32:42.822Z,1008.14
2017-05-04T04:33:43.498Z,1008.15
2017-05-04T04:34:44.106Z,1008.16
2017-05-04T04:35:44.714Z,1008.16
2017-05-04T04:36:45.327Z,1008.15
2017-05-04T04:37:45.932Z,1008.13
2017-05-04T04:38:46.590Z,1008.18
2017-05-04T04:39:47.205Z,1008.18
2017-05-04T04:40:47.829Z,1008.17
2017-05-04T04:41:48.431Z,1008.17
2017-05-04T04:42:49.037Z,1008.18
2017-05-04T04:43:49.654Z,1008.18
2017-05-04T04:44:50.270Z,1008.17
2017-05-04T04:45:50.883Z,1008.16
2017-05-04T04:46:51.498Z,1008.11
2017-05-04T04:47:52.103Z,1008.14
2017-05-04T04:48:52.702Z,1008.13
2017-05-04T04:49:53.315Z,1008.08
2017-05-04T04:50:53.936Z,1008.12
2017-05-04T04:51:54.545Z,1008.08
2017-05-04T04:52:55.149Z,1008.11
2017-05-04T04:53:55.806Z,1008.12
2017-05-04T04:54:56.433Z,1008.09
2017-05-04T04:55:57.059Z,1008.10
2017-05-04T04:56:57.678Z,1008.09
2017-05-04T04:57:58.298Z,1008.15
2017-05-04T04:58:58.894Z,1008.13
2017-05-04T04:59:59.497Z,1008.11
2017-05-04T05:01:00.239Z,1008.12
2017-05-04T05:02:00.880Z,1008.10
2017-05-04T05:03:01.502Z,1008.07
2017-05-04T05:04:02.168Z,1008.10
2017-05-04T05:05:02.788Z,1008.10
2017-05-04T05:06:03.389Z,1008.08
2017-05-04T05:07:03.992Z,1008.06
2017-05-04T05:08:04.603Z,1008.04
2017-05-04T05:09:05.218Z,1008.06
2017-05-04T05:10:05.825Z,1008.05
2017-05-04T05:11:06.438Z,1008.06
2017-05-04T05:12:07.055Z,1008.02
2017-05-04T05:13:07.664Z,1008.03
2017-05-04T05:14:08.324Z,1008.04
2017-05-04T05:15:08.934Z,1008.06
2017-05-04T05:16:09.546Z,1008.03
2017-05-04T05:17:10.151Z,1008.07
2017-05-04T05:18:10.752Z,1008.05
2017-05-04T05:19:11.356Z,1007.98
2017-05-04T05:20:11.959Z,1007.98
2017-05-04T05:21:12.570Z,1007.98
2017-05-04T05:22:13.183Z,1007.99
2017-05-04T05:23:13.800Z,1007.97
2017-05-04T05:24:14.416Z,1008.02
2017-05-04T05:25:15.029Z,1007.98
2017-05-04T05:26:15.640Z,1008.04
2017-05-04T05:27:16.240Z,1008.01
2017-05-04T05:28:16.851Z,1008.07
2017-05-04T05:29:17.509Z,1008.05
2017-05-04T05:30:18.115Z,1008.04
2017-05-04T05:31:18.730Z,1008.09
2017-05-04T05:32:19.330Z,1008.03
2017-05-04T05:33:19.929Z,1008.02
2017-05-04T05:34:20.588Z,1008.03
2017-05-04T05:35:21.204Z,1008.06
2017-05-04T05:36:21.824Z,1008.05
2017-05-04T05:37:22.436Z,1008.07
2017-05-04T05:38:23.050Z,1008.07
2017-05-04T05:39:23.720Z,1008.08
2017-05-04T05:40:24.329Z,1008.03
2017-05-04T05:41:24.940Z,1008.02
2017-05-04T05:42:25.561Z,1008.05
2017-05-04T05:43:26.165Z,1008.02
2017-05-04T05:44:26.830Z,1008.04
2017-05-04T05:45:27.439Z,1008.05
2017-05-04T05:46:28.061Z,1008.07
2017-05-04T05:47:28.664Z,1008.07
2017-05-04T05:48:29.279Z,1008.04
2017-05-04T05:49:29.946Z,1008.07
2017-05-04T05:50:30.557Z,1008.08
2017-05-04T05:51:31.183Z,1008.10
2017-05-04T05:52:31.821Z,1008.06
2017-05-04T05:53:32.442Z,1008.10
2017-05-04T05:54:33.088Z,1008.09
2017-05-04T05:55:33.693Z,1008.03
2017-05-04T05:56:34.288Z,1008.08
2017-05-04T05:57:34.906Z,1008.11
2017-05-04T05:58:35.533Z,1008.04
2017-05-04T05:59:36.184Z,1008.06
2017-05-04T06:00:36.787Z,1008.02
2017-05-04T06:01:37.407Z,1008.00
2017-05-04T06:02:38.018Z,1008.05
2017-05-04T06:03:38.623Z,1008.05
2017-05-04T06:04:39.246Z,1008.06
2017-05-04T06:05:39.858Z,1008.04
2017-05-04T06:06:40.463Z,1008.07
2017-05-04T06:07:41.065Z,1008.08
2017-05-04T06:08:41.678Z,1008.10
2017-05-04T06:09:42.343Z,1008.09
2017-05-04T06:10:42.959Z,1008.11
2017-05-04T06:11:43.559Z,1008.10
2017-05-04T06:12:44.162Z,1008.08
2017-05-04T06:13:44.766Z,1008.10
2017-05-04T06:14:45.392Z,1008.10
2017-05-04T06:15:45.996Z,1008.10
2017-05-04T06:16:46.617Z,1008.12
2017-05-04T06:17:47.228Z,1008.12
2017-05-04T06:18:47.833Z,1008.11
2017-05-04T06:19:48.491Z,1008.12
2017-05-04T06:20:49.105Z,1008.11
2017-05-04T06:21:49.718Z,1008.09
2017-05-04T06:22:50.334Z,1008.10
2017-05-04T06:23:50.960Z,1008.11
2017-05-04T06:24:51.570Z,1008.11
2017-05-04T06:25:52.183Z,1008.15
2017-05-04T06:26:52.788Z,1008.14
2017-05-04T06:27:53.397Z,1008.10
2017-05-04T06:28:54.007Z,1008.09
2017-05-04T06:29:54.673Z,1008.10
2017-05-04T06:30:55.282Z,1008.10
2017-05-04T06:31:55.898Z,1008.15
2017-05-04T06:32:56.553Z,1008.11
2017-05-04T06:33:57.140Z,1008.11
2017-05-04T06:34:57.788Z,1008.13
2017-05-04T06:35:58.405Z,1008.13
2017-05-04T06:36:59.224Z,1008.11
2017-05-04T06:37:59.833Z,1008.13
2017-05-04T06:39:00.450Z,1008.11
2017-05-04T06:40:01.073Z,1008.15
2017-05-04T06:41:01.677Z,1008.16
2017-05-04T06:42:02.288Z,1008.10
2017-05-04T06:43:02.899Z,1008.13
2017-05-04T06:44:03.500Z,1008.13
2017-05-04T06:45:04.105Z,1008.14
2017-05-04T06:46:04.709Z,1008.17
2017-05-04T06:47:05.315Z,1008.16
2017-05-04T06:48:05.932Z,1008.14
2017-05-04T06:49:06.560Z,1008.18
2017-05-04T06:50:07.174Z,1008.14
2017-05-04T06:51:07.793Z,1008.17
2017-05-04T06:52:08.397Z,1008.17
2017-05-04T06:53:09.005Z,1008.18
2017-05-04T06:54:09.619Z,1008.18
2017-05-04T06:55:10.236Z,1008.20
2017-05-04T06:56:10.849Z,1008.21
2017-05-04T06:57:11.457Z,1008.25
2017-05-04T06:58:12.061Z,1008.22
2017-05-04T06:59:12.675Z,1008.21
2017-05-04T07:00:13.337Z,1008.17
2017-05-04T07:01:13.943Z,1008.17
2017-05-04T07:02:14.561Z,1008.19
2017-05-04T07:03:15.180Z,1008.21
2017-05-04T07:04:15.797Z,1008.20
2017-05-04T07:05:16.450Z,1008.18
2017-05-04T07:06:17.072Z,1008.19
2017-05-04T07:07:17.688Z,1008.21
2017-05-04T07:08:18.306Z,1008.20
2017-05-04T07:09:18.917Z,1008.20
2017-05-04T07:10:19.521Z,1008.21
2017-05-04T07:11:20.140Z,1008.24
2017-05-04T07:12:20.754Z,1008.21
2017-05-04T07:13:21.373Z,1008.23
2017-05-04T07:14:21.983Z,1008.19
2017-05-04T07:15:22.644Z,1008.23
2017-05-04T07:16:23.247Z,1008.22
2017-05-04T07:17:23.845Z,1008.21
2017-05-04T07:18:24.463Z,1008.20
2017-05-04T07:19:25.077Z,1008.17
2017-05-04T07:20:25.741Z,1008.21
2017-05-04T07:21:26.347Z,1008.24
2017-05-04T07:22:26.960Z,1008.20
2017-05-04T07:23:27.587Z,1008.26
2017-05-04T07:24:28.183Z,1008.21
2017-05-04T07:25:28.836Z,1008.17
2017-05-04T07:26:29.451Z,1008.22
2017-05-04T07:27:30.052Z,1008.23
2017-05-04T07:28:30.671Z,1008.20
2017-05-04T07:29:31.288Z,1008.25
2017-05-04T07:30:31.905Z,1008.22
2017-05-04T07:31:32.520Z,1008.26
2017-05-04T07:32:33.146Z,1008.25
2017-05-04T07:33:33.763Z,1008.26
2017-05-04T07:34:34.374Z,1008.23
2017-05-04T07:35:34.979Z,1008.31
2017-05-04T07:36:35.593Z,1008.25
2017-05-04T07:37:36.213Z,1008.32
2017-05-04T07:38:36.833Z,1008.30
2017-05-04T07:39:37.434Z,1008.28
2017-05-04T07:40:38.090Z,1008.28
2017-05-04T07:41:38.697Z,1008.28
2017-05-04T07:42:39.307Z,1008.32
2017-05-04T07:43:39.926Z,1008.29
2017-05-04T07:44:40.575Z,1008.31
2017-05-04T07:45:41.296Z,1008.27
2017-05-04T07:46:41.912Z,1008.30
2017-05-04T07:47:42.525Z,1008.32
2017-05-04T07:48:43.143Z,1008.28
2017-05-04T07:49:43.763Z,1008.31
2017-05-04T07:50:44.431Z,1008.28
2017-05-04T07:51:45.047Z,1008.26
2017-05-04T07:52:45.662Z,1008.26
2017-05-04T07:53:46.266Z,1008.26
2017-05-04T07:54:46.877Z,1008.24
2017-05-04T07:55:47.544Z,1008.25
2017-05-04T07:56:48.164Z,1008.26
2017-05-04T07:57:48.780Z,1008.27
2017-05-04T07:58:49.396Z,1008.24
2017-05-04T07:59:50.016Z,1008.26
2017-05-04T08:00:50.684Z,1008.28
2017-05-04T08:01:51.346Z,1008.30
2017-05-04T08:02:51.941Z,1008.30
2017-05-04T08:03:52.544Z,1008.31
2017-05-04T08:04:53.363Z,1008.29
2017-05-04T08:05:54.037Z,1008.31
2017-05-04T08:06:54.643Z,1008.27
2017-05-04T08:07:55.263Z,1008.28
2017-05-04T08:08:55.871Z,1008.24
2017-05-04T08:09:56.487Z,1008.24
2017-05-04T08:10:57.171Z,1008.22
2017-05-04T08:11:57.789Z,1008.24
2017-05-04T08:12:58.396Z,1008.20
2017-05-04T08:13:59.017Z,1008.25
2017-05-04T08:14:59.629Z,1008.18
2017-05-04T08:16:00.247Z,1008.23
2017-05-04T08:17:00.865Z,1008.18
2017-05-04T08:18:01.484Z,1008.22
2017-05-04T08:19:02.103Z,1008.26
2017-05-04T08:20:02.722Z,1008.25
2017-05-04T08:21:03.384Z,1008.23
2017-05-04T08:22:03.991Z,1008.20
2017-05-04T08:23:04.611Z,1008.19
2017-05-04T08:24:05.224Z,1008.21
2017-05-04T08:25:05.838Z,1008.21
2017-05-04T08:26:06.451Z,1008.26
2017-05-04T08:27:07.066Z,1008.22
2017-05-04T08:28:07.671Z,1008.23
2017-05-04T08:29:08.283Z,1008.23
2017-05-04T08:30:08.902Z,1008.18
2017-05-04T08:31:09.558Z,1008.20
2017-05-04T08:32:10.171Z,1008.21
2017-05-04T08:33:10.782Z,1008.21
2017-05-04T08:34:11.401Z,1008.19
2017-05-04T08:35:12.007Z,1008.21
2017-05-04T08:36:12.625Z,1008.20
2017-05-04T08:37:13.241Z,1008.24
2017-05-04T08:38:13.861Z,1008.22
2017-05-04T08:39:14.472Z,1008.27
2017-05-04T08:40:15.082Z,1008.26
2017-05-04T08:41:15.750Z,1008.28
2017-05-04T08:42:16.369Z,1008.31
2017-05-04T08:43:16.989Z,1008.27
2017-05-04T08:44:17.612Z,1008.27
2017-05-04T08:45:18.223Z,1008.28
2017-05-04T08:46:18.842Z,1008.27
2017-05-04T08:47:19.463Z,1008.27
2017-05-04T08:48:20.083Z,1008.28
2017-05-04T08:49:20.706Z,1008.28
2017-05-04T08:50:21.322Z,1008.36
2017-05-04T08:51:21.936Z,1008.32
2017-05-04T08:52:22.554Z,1008.33
2017-05-04T08:53:23.175Z,1008.36
2017-05-04T08:54:23.779Z,1008.32
2017-05-04T08:55:24.402Z,1008.37
2017-05-04T08:56:25.072Z,1008.33
2017-05-04T08:57:25.744Z,1008.34
2017-05-04T08:58:26.367Z,1008.32
2017-05-04T08:59:26.975Z,1008.34
2017-05-04T09:00:27.582Z,1008.33
2017-05-04T09:01:28.264Z,1008.33
2017-05-04T09:02:28.899Z,1008.32
2017-05-04T09:03:29.568Z,1008.37
2017-05-04T09:04:30.216Z,1008.38
2017-05-04T09:05:30.829Z,1008.34
2017-05-04T09:06:31.489Z,1008.34
2017-05-04T09:07:32.107Z,1008.38
2017-05-04T09:08:32.721Z,1008.40
2017-05-04T09:09:33.328Z,1008.41
2017-05-04T09:10:33.949Z,1008.39
2017-05-04T09:11:34.617Z,1008.39
2017-05-04T09:12:35.233Z,1008.40
2017-05-04T09:13:35.854Z,1008.39
2017-05-04T09:14:36.458Z,1008.40
2017-05-04T09:15:37.075Z,1008.42
2017-05-04T09:16:37.683Z,1008.39
2017-05-04T09:17:38.287Z,1008.42
2017-05-04T09:18:38.902Z,1008.40
2017-05-04T09:19:39.520Z,1008.38
2017-05-04T09:20:40.139Z,1008.39
2017-05-04T09:21:40.752Z,1008.44
2017-05-04T09:22:41.367Z,1008.42
2017-05-04T09:23:41.979Z,1008.43
2017-05-04T09:24:42.587Z,1008.46
2017-05-04T09:25:43.210Z,1008.45
2017-05-04T09:26:43.881Z,1008.41
2017-05-04T09:27:44.484Z,1008.39
2017-05-04T09:28:45.094Z,1008.44
2017-05-04T09:29:45.718Z,1008.42
2017-05-04T09:30:46.341Z,1008.42
2017-05-04T09:31:47.014Z,1008.43
2017-05-04T09:32:47.634Z,1008.39
2017-05-04T09:33:48.243Z,1008.37
2017-05-04T09:34:48.863Z,1008.35
2017-05-04T09:35:49.479Z,1008.34
2017-05-04T09:36:50.096Z,1008.38
2017-05-04T09:37:50.739Z,1008.34
2017-05-04T09:38:51.340Z,1008.40
2017-05-04T09:39:51.964Z,1008.38
2017-05-04T09:40:52.590Z,1008.38
2017-05-04T09:41:53.249Z,1008.36
2017-05-04T09:42:53.859Z,1008.34
2017-05-04T09:43:54.479Z,1008.32
2017-05-04T09:44:55.103Z,1008.28
2017-05-04T09:45:55.731Z,1008.29
2017-05-04T09:46:56.400Z,1008.32
2017-05-04T09:47:57.023Z,1008.33
2017-05-04T09:48:57.645Z,1008.30
2017-05-04T09:49:58.267Z,1008.25
2017-05-04T09:50:58.914Z,1008.26
2017-05-04T09:51:59.572Z,1008.26
2017-05-04T09:53:00.191Z,1008.27
2017-05-04T09:54:00.813Z,1008.30
2017-05-04T09:55:01.437Z,1008.23
2017-05-04T09:56:02.049Z,1008.23
2017-05-04T09:57:02.658Z,1008.25
2017-05-04T09:58:03.281Z,1008.23
2017-05-04T09:59:03.901Z,1008.22
2017-05-04T10:00:04.511Z,1008.28
2017-05-04T10:01:05.134Z,1008.27
2017-05-04T10:02:05.874Z,1008.25
2017-05-04T10:03:06.484Z,1008.23
2017-05-04T10:04:07.102Z,1008.24
2017-05-04T10:05:07.716Z,1008.22
2017-05-04T10:06:08.374Z,1008.23
2017-05-04T10:07:08.989Z,1008.22
2017-05-04T10:08:09.607Z,1008.23
2017-05-04T10:09:10.234Z,1008.22
2017-05-04T10:10:10.883Z,1008.22
2017-05-04T10:11:11.513Z,1008.28
2017-05-04T10:12:12.133Z,1008.27
2017-05-04T10:13:12.755Z,1008.27
2017-05-04T10:14:13.386Z,1008.29
2017-05-04T10:15:13.973Z,1008.25
2017-05-04T10:16:14.588Z,1008.29
2017-05-04T10:17:15.268Z,1008.28
2017-05-04T10:18:15.890Z,1008.26
2017-05-04T10:19:16.511Z,1008.23
2017-05-04T10:20:17.131Z,1008.23
2017-05-04T10:21:17.744Z,1008.20
2017-05-04T10:22:18.412Z,1008.23
2017-05-04T10:23:19.032Z,1008.23
2017-05-04T10:24:19.650Z,1008.20
2017-05-04T10:25:20.257Z,1008.24
2017-05-04T10:26:20.877Z,1008.24
2017-05-04T10:27:21.502Z,1008.27
2017-05-04T10:28:22.123Z,1008.25
2017-05-04T10:29:22.738Z,1008.22
2017-05-04T10:30:23.348Z,1008.27
2017-05-04T10:31:23.978Z,1008.22
2017-05-04T10:32:24.575Z,1008.25
2017-05-04T10:33:25.189Z,1008.22
2017-05-04T10:34:25.814Z,1008.21
2017-05-04T10:35:26.419Z,1008.19
2017-05-04T10:36:27.026Z,1008.19
2017-05-04T10:37:27.682Z,1008.19
2017-05-04T10:38:28.303Z,1008.21
2017-05-04T10:39:28.931Z,1008.16
2017-05-04T10:40:29.547Z,1008.18
2017-05-04T10:41:30.167Z,1008.15
2017-05-04T10:42:30.826Z,1008.17
2017-05-04T10:43:31.444Z,1008.15
2017-05-04T10:44:32.063Z,1008.17
2017-05-04T10:45:32.669Z,1008.18
2017-05-04T10:46:33.275Z,1008.14
2017-05-04T10:47:33.884Z,1008.18
2017-05-04T10:48:34.506Z,1008.16
2017-05-04T10:49:35.126Z,1008.15
2017-05-04T10:50:35.750Z,1008.14
2017-05-04T10:51:36.375Z,1008.12
2017-05-04T10:52:36.983Z,1008.16
2017-05-04T10:53:37.589Z,1008.12
2017-05-04T10:54:38.198Z,1008.09
2017-05-04T10:55:38.804Z,1008.11
2017-05-04T10:56:39.419Z,1008.13
2017-05-04T10:57:40.036Z,1008.10
2017-05-04T10:58:40.657Z,1008.13
2017-05-04T10:59:41.275Z,1008.11
2017-05-04T11:00:41.893Z,1008.14
2017-05-04T11:01:42.500Z,1008.14
2017-05-04T11:02:43.121Z,1008.09
2017-05-04T11:03:43.741Z,1008.07
2017-05-04T11:04:44.364Z,1008.12
2017-05-04T11:05:44.998Z,1008.10
2017-05-04T11:06:45.632Z,1008.12
2017-05-04T11:07:46.265Z,1008.08
2017-05-04T11:08:46.880Z,1008.07
2017-05-04T11:09:47.497Z,1008.14
2017-05-04T11:10:48.119Z,1008.05
2017-05-04T11:11:48.740Z,1008.09
2017-05-04T11:12:49.411Z,1008.01
2017-05-04T11:13:50.024Z,1008.04
2017-05-04T11:14:50.626Z,1008.07
2017-05-04T11:15:51.251Z,1008.13
2017-05-04T11:16:52.092Z,1008.06
2017-05-04T11:17:52.771Z,1008.05
2017-05-04T11:18:53.585Z,1008.09
2017-05-04T11:19:54.204Z,1008.10
2017-05-04T11:20:54.825Z,1008.14
2017-05-04T11:21:55.433Z,1008.12
2017-05-04T11:22:56.044Z,1008.08
2017-05-04T11:23:56.666Z,1008.10
2017-05-04T11:24:57.289Z,1008.14
2017-05-04T11:25:57.910Z,1008.09
2017-05-04T11:26:58.660Z,1008.09
2017-05-04T11:27:59.298Z,1008.02
2017-05-04T11:28:59.929Z,1008.01
2017-05-04T11:30:00.721Z,1008.03
2017-05-04T11:31:01.344Z,1008.03
2017-05-04T11:32:01.964Z,1007.97
2017-05-04T11:33:02.646Z,1008.02
2017-05-04T11:34:03.289Z,1008.03
2017-05-04T11:35:03.953Z,1008.02
2017-05-04T11:36:04.573Z,1007.98
2017-05-04T11:37:05.195Z,1008.06
2017-05-04T11:38:05.853Z,1008.08
2017-05-04T11:39:06.478Z,1008.05
2017-05-04T11:40:07.101Z,1008.00
2017-05-04T11:41:07.711Z,1007.96
2017-05-04T11:42:08.326Z,1008.05
2017-05-04T11:43:08.984Z,1008.03
2017-05-04T11:44:09.608Z,1008.05
2017-05-04T11:45:10.226Z,1008.10
2017-05-04T11:46:10.837Z,1008.17
2017-05-04T11:47:11.465Z,1008.11
2017-05-04T11:48:12.095Z,1008.09
2017-05-04T11:49:12.719Z,1008.08
2017-05-04T11:50:13.329Z,1008.09
2017-05-04T11:51:13.941Z,1008.12
2017-05-04T11:52:14.556Z,1008.06
2017-05-04T11:53:15.217Z,1008.21
2017-05-04T11:54:15.834Z,1008.19
2017-05-04T11:55:16.447Z,1008.21
2017-05-04T11:56:17.090Z,1008.13
2017-05-04T11:57:17.708Z,1008.20
2017-05-04T11:58:18.374Z,1008.26
2017-05-04T11:59:18.994Z,1008.27
2017-05-04T12:00:19.648Z,1008.24
2017-05-04T12:01:20.284Z,1008.22
2017-05-04T12:02:20.912Z,1008.23
2017-05-04T12:03:21.586Z,1008.22
2017-05-04T12:04:22.218Z,1008.22
2017-05-04T12:05:22.839Z,1008.19
2017-05-04T12:06:23.463Z,1008.25
2017-05-04T12:07:24.092Z,1008.23
2017-05-04T12:08:24.981Z,1008.28
2017-05-04T12:09:25.734Z,1008.19
2017-05-04T12:10:26.338Z,1008.26
2017-05-04T12:11:26.957Z,1008.26
2017-05-04T12:12:27.589Z,1008.25
2017-05-04T12:13:28.251Z,1008.26